sensor_id;sensor_type;location;lat;lon;timestamp;P1;durP1;ratioP1;P2;durP2;ratioP2
15159;SDS011;7680;48.800;9.680;2024-03-23T00:56:27;8.97;;;8.13;;
15159;SDS011;7680;48.800;9.680;2024-03-23T01:01:29;7.67;;;7.07;;
15159;SDS011;7680;48.800;9.680;2024-03-23T01:06:32;7.10;;;6.40;;
15159;SDS011;7680;48.800;9.680;2024-03-23T01:11:35;18.17;;;14.40;;
15159;SDS011;7680;48.800;9.680;2024-03-23T01:16:37;9.03;;;8.07;;
15159;SDS011;7680;48.800;9.680;2024-03-23T01:21:40;8.50;;;7.90;;
15159;SDS011;7680;48.800;9.680;2024-03-23T01:26:43;9.87;;;8.33;;
15159;SDS011;7680;48.800;9.680;2024-03-23T01:31:45;8.93;;;8.13;;
15159;SDS011;7680;48.800;9.680;2024-03-23T01:36:49;9.53;;;8.53;;
15159;SDS011;7680;48.800;9.680;2024-03-23T01:41:51;7.70;;;7.10;;
15159;SDS011;7680;48.800;9.680;2024-03-23T01:46:53;13.87;;;10.37;;
15159;SDS011;7680;48.800;9.680;2024-03-23T01:51:56;7.53;;;6.87;;
15159;SDS011;7680;48.800;9.680;2024-03-23T01:56:59;7.67;;;7.07;;
15159;SDS011;7680;48.800;9.680;2024-03-23T02:02:01;8.23;;;7.30;;
15159;SDS011;7680;48.800;9.680;2024-03-23T02:07:05;9.33;;;8.53;;
15159;SDS011;7680;48.800;9.680;2024-03-23T02:12:08;9.57;;;8.30;;
15159;SDS011;7680;48.800;9.680;2024-03-23T02:17:11;10.80;;;9.80;;
15159;SDS011;7680;48.800;9.680;2024-03-23T02:22:15;10.73;;;9.23;;
15159;SDS011;7680;48.800;9.680;2024-03-23T02:27:18;10.33;;;8.30;;
15159;SDS011;7680;48.800;9.680;2024-03-23T02:32:20;10.40;;;8.03;;
15159;SDS011;7680;48.800;9.680;2024-03-23T02:37:23;10.93;;;9.80;;
15159;SDS011;7680;48.800;9.680;2024-03-23T02:42:26;9.53;;;8.63;;
15159;SDS011;7680;48.800;9.680;2024-03-23T02:47:28;8.77;;;7.87;;
15159;SDS011;7680;48.800;9.680;2024-03-23T02:52:30;10.40;;;8.40;;
15159;SDS011;7680;48.800;9.680;2024-03-23T02:57:34;8.00;;;7.30;;
15159;SDS011;7680;48.800;9.680;2024-03-23T03:02:36;8.77;;;7.87;;
15159;SDS011;7680;48.800;9.680;2024-03-23T03:07:38;8.30;;;7.50;;
15159;SDS011;7680;48.800;9.680;2024-03-23T03:12:42;8.37;;;7.57;;
15159;SDS011;7680;48.800;9.680;2024-03-23T03:17:44;8.60;;;7.90;;
15159;SDS011;7680;48.800;9.680;2024-03-23T03:22:46;8.40;;;7.60;;
15159;SDS011;7680;48.800;9.680;2024-03-23T03:27:50;8.33;;;7.53;;
15159;SDS011;7680;48.800;9.680;2024-03-23T03:32:53;8.07;;;7.37;;
15159;SDS011;7680;48.800;9.680;2024-03-23T03:37:55;7.63;;;7.00;;
15159;SDS011;7680;48.800;9.680;2024-03-23T03:42:58;8.77;;;7.97;;
15159;SDS011;7680;48.800;9.680;2024-03-23T03:48:01;9.80;;;7.93;;
15159;SDS011;7680;48.800;9.680;2024-03-23T03:53:03;25.90;;;13.53;;
15159;SDS011;7680;48.800;9.680;2024-03-23T03:58:07;13.13;;;10.33;;
15159;SDS011;7680;48.800;9.680;2024-03-23T04:03:09;21.67;;;15.07;;
15159;SDS011;7680;48.800;9.680;2024-03-23T04:08:11;11.93;;;8.90;;
15159;SDS011;7680;48.800;9.680;2024-03-23T04:13:14;7.93;;;7.13;;
15159;SDS011;7680;48.800;9.680;2024-03-23T04:18:17;8.00;;;7.30;;
15159;SDS011;7680;48.800;9.680;2024-03-23T04:23:19;7.03;;;6.50;;
15159;SDS011;7680;48.800;9.680;2024-03-23T04:28:23;7.43;;;6.70;;
15159;SDS011;7680;48.800;9.680;2024-03-23T04:33:25;7.03;;;6.43;;
15159;SDS011;7680;48.800;9.680;2024-03-23T04:38:27;7.13;;;6.53;;
15159;SDS011;7680;48.800;9.680;2024-03-23T04:43:30;7.33;;;6.63;;
15159;SDS011;7680;48.800;9.680;2024-03-23T04:48:33;6.27;;;5.77;;
15159;SDS011;7680;48.800;9.680;2024-03-23T04:53:35;6.20;;;5.60;;
15159;SDS011;7680;48.800;9.680;2024-03-23T04:58:38;6.27;;;5.67;;
15159;SDS011;7680;48.800;9.680;2024-03-23T05:03:40;5.43;;;5.00;;
15159;SDS011;7680;48.800;9.680;2024-03-23T05:08:42;6.77;;;6.17;;
15159;SDS011;7680;48.800;9.680;2024-03-23T05:13:46;6.70;;;5.53;;
15159;SDS011;7680;48.800;9.680;2024-03-23T05:18:48;6.17;;;5.67;;
15159;SDS011;7680;48.800;9.680;2024-03-23T05:23:50;7.60;;;6.87;;
15159;SDS011;7680;48.800;9.680;2024-03-23T05:28:54;13.57;;;11.03;;
15159;SDS011;7680;48.800;9.680;2024-03-23T05:33:56;15.97;;;14.33;;
15159;SDS011;7680;48.800;9.680;2024-03-23T05:38:58;18.87;;;16.67;;
15159;SDS011;7680;48.800;9.680;2024-03-23T05:44:02;21.60;;;17.70;;
15159;SDS011;7680;48.800;9.680;2024-03-23T05:49:04;18.73;;;16.60;;
15159;SDS011;7680;48.800;9.680;2024-03-23T05:54:07;21.37;;;18.43;;
15159;SDS011;7680;48.800;9.680;2024-03-23T05:59:10;23.83;;;19.73;;
15159;SDS011;7680;48.800;9.680;2024-03-23T06:04:12;23.27;;;19.20;;
15159;SDS011;7680;48.800;9.680;2024-03-23T06:09:14;22.57;;;19.53;;
15159;SDS011;7680;48.800;9.680;2024-03-23T06:14:18;22.97;;;17.93;;
15159;SDS011;7680;48.800;9.680;2024-03-23T06:19:21;17.73;;;15.67;;
15159;SDS011;7680;48.800;9.680;2024-03-23T06:24:23;14.97;;;12.80;;
15159;SDS011;7680;48.800;9.680;2024-03-23T06:29:27;13.20;;;9.63;;
15159;SDS011;7680;48.800;9.680;2024-03-23T06:34:29;10.40;;;8.87;;
15159;SDS011;7680;48.800;9.680;2024-03-23T06:39:31;9.90;;;8.60;;
15159;SDS011;7680;48.800;9.680;2024-03-23T06:44:34;9.87;;;8.20;;
15159;SDS011;7680;48.800;9.680;2024-03-23T06:49:36;7.97;;;6.93;;
15159;SDS011;7680;48.800;9.680;2024-03-23T06:54:39;7.93;;;7.13;;
15159;SDS011;7680;48.800;9.680;2024-03-23T06:59:42;8.97;;;7.27;;
15159;SDS011;7680;48.800;9.680;2024-03-23T07:04:44;7.33;;;6.60;;
15159;SDS011;7680;48.800;9.680;2024-03-23T07:09:46;6.10;;;5.50;;
15159;SDS011;7680;48.800;9.680;2024-03-23T07:14:50;5.40;;;4.90;;
15159;SDS011;7680;48.800;9.680;2024-03-23T07:19:52;4.90;;;4.13;;
15159;SDS011;7680;48.800;9.680;2024-03-23T07:24:54;3.70;;;3.40;;
15159;SDS011;7680;48.800;9.680;2024-03-23T07:29:58;3.13;;;2.87;;
15159;SDS011;7680;48.800;9.680;2024-03-23T07:35:01;2.63;;;2.43;;
15159;SDS011;7680;48.800;9.680;2024-03-23T07:40:05;2.40;;;2.20;;
15159;SDS011;7680;48.800;9.680;2024-03-23T07:45:09;2.50;;;2.40;;
15159;SDS011;7680;48.800;9.680;2024-03-23T07:50:12;2.50;;;2.20;;
15159;SDS011;7680;48.800;9.680;2024-03-23T07:55:14;1.90;;;1.80;;
15159;SDS011;7680;48.800;9.680;2024-03-23T08:00:18;1.63;;;1.53;;
15159;SDS011;7680;48.800;9.680;2024-03-23T08:05:20;2.13;;;1.98;;
15159;SDS011;7680;48.800;9.680;2024-03-23T08:10:23;1.83;;;1.80;;
15159;SDS011;7680;48.800;9.680;2024-03-23T08:15:26;2.20;;;2.10;;
15159;SDS011;7680;48.800;9.680;2024-03-23T08:20:28;2.00;;;1.90;;
15159;SDS011;7680;48.800;9.680;2024-03-23T08:25:30;2.00;;;1.90;;
15159;SDS011;7680;48.800;9.680;2024-03-23T08:30:34;2.10;;;1.90;;
15159;SDS011;7680;48.800;9.680;2024-03-23T08:35:36;1.97;;;1.87;;
15159;SDS011;7680;48.800;9.680;2024-03-23T08:40:40;2.00;;;1.90;;
15159;SDS011;7680;48.800;9.680;2024-03-23T08:45:44;2.40;;;2.30;;
15159;SDS011;7680;48.800;9.680;2024-03-23T08:50:46;2.73;;;2.60;;
15159;SDS011;7680;48.800;9.680;2024-03-23T08:55:52;2.10;;;2.00;;
15159;SDS011;7680;48.800;9.680;2024-03-23T09:00:57;2.30;;;2.20;;
15159;SDS011;7680;48.800;9.680;2024-03-23T09:06:08;2.00;;;1.90;;
15159;SDS011;7680;48.800;9.680;2024-03-23T09:11:11;1.80;;;1.70;;
15159;SDS011;7680;48.800;9.680;2024-03-23T09:16:16;2.40;;;2.30;;
15159;SDS011;7680;48.800;9.680;2024-03-23T09:21:18;2.20;;;2.10;;
15159;SDS011;7680;48.800;9.680;2024-03-23T09:26:20;2.57;;;2.37;;
15159;SDS011;7680;48.800;9.680;2024-03-23T09:31:23;3.10;;;2.80;;
15159;SDS011;7680;48.800;9.680;2024-03-23T09:36:25;5.07;;;3.57;;
15159;SDS011;7680;48.800;9.680;2024-03-23T09:41:28;3.13;;;2.80;;
15159;SDS011;7680;48.800;9.680;2024-03-23T09:46:31;4.47;;;2.80;;
15159;SDS011;7680;48.800;9.680;2024-03-23T09:51:35;4.97;;;3.20;;
15159;SDS011;7680;48.800;9.680;2024-03-23T09:56:38;2.90;;;2.50;;
15159;SDS011;7680;48.800;9.680;2024-03-23T10:01:41;4.93;;;2.83;;
15159;SDS011;7680;48.800;9.680;2024-03-23T10:06:44;5.00;;;3.03;;
15159;SDS011;7680;48.800;9.680;2024-03-23T10:11:46;7.10;;;3.58;;
15159;SDS011;7680;48.800;9.680;2024-03-23T10:16:51;5.72;;;3.80;;
15159;SDS011;7680;48.800;9.680;2024-03-23T10:21:55;6.78;;;3.90;;
15159;SDS011;7680;48.800;9.680;2024-03-23T10:26:57;5.97;;;3.78;;
15159;SDS011;7680;48.800;9.680;2024-03-23T10:32:10;4.25;;;3.80;;
15159;SDS011;7680;48.800;9.680;2024-03-23T10:37:14;6.00;;;3.50;;
15159;SDS011;7680;48.800;9.680;2024-03-23T10:42:16;6.25;;;3.60;;
15159;SDS011;7680;48.800;9.680;2024-03-23T10:47:21;6.00;;;3.58;;
15159;SDS011;7680;48.800;9.680;2024-03-23T10:52:23;6.57;;;3.80;;
15159;SDS011;7680;48.800;9.680;2024-03-23T10:57:26;7.28;;;3.42;;
15159;SDS011;7680;48.800;9.680;2024-03-23T11:02:34;4.95;;;3.13;;
15159;SDS011;7680;48.800;9.680;2024-03-23T11:07:36;4.93;;;4.00;;
15159;SDS011;7680;48.800;9.680;2024-03-23T11:12:39;5.35;;;3.65;;
15159;SDS011;7680;48.800;9.680;2024-03-23T11:17:42;21.92;;;14.90;;
15159;SDS011;7680;48.800;9.680;2024-03-23T11:23:05;6.83;;;5.10;;
15159;SDS011;7680;48.800;9.680;2024-03-23T11:28:11;6.40;;;4.80;;
15159;SDS011;7680;48.800;9.680;2024-03-23T11:33:15;7.57;;;4.90;;
15159;SDS011;7680;48.800;9.680;2024-03-23T11:38:17;6.83;;;5.90;;
15159;SDS011;7680;48.800;9.680;2024-03-23T11:43:20;11.77;;;7.20;;
15159;SDS011;7680;48.800;9.680;2024-03-23T11:48:25;9.83;;;6.50;;
15159;SDS011;7680;48.800;9.680;2024-03-23T11:53:27;7.67;;;6.30;;
15159;SDS011;7680;48.800;9.680;2024-03-23T11:58:30;7.87;;;6.33;;
15159;SDS011;7680;48.800;9.680;2024-03-23T12:03:34;9.30;;;6.07;;
15159;SDS011;7680;48.800;9.680;2024-03-23T12:08:36;10.67;;;6.93;;
15159;SDS011;7680;48.800;9.680;2024-03-23T12:13:39;12.90;;;7.03;;
15159;SDS011;7680;48.800;9.680;2024-03-23T12:18:47;10.00;;;6.30;;
15159;SDS011;7680;48.800;9.680;2024-03-23T12:23:51;7.43;;;5.77;;
15159;SDS011;7680;48.800;9.680;2024-03-23T12:28:53;6.40;;;5.77;;
15159;SDS011;7680;48.800;9.680;2024-03-23T12:33:56;6.43;;;4.73;;
15159;SDS011;7680;48.800;9.680;2024-03-23T12:38:59;5.67;;;4.80;;
15159;SDS011;7680;48.800;9.680;2024-03-23T12:44:01;6.20;;;5.07;;
15159;SDS011;7680;48.800;9.680;2024-03-23T12:49:05;7.00;;;5.43;;
15159;SDS011;7680;48.800;9.680;2024-03-23T12:54:07;4.40;;;3.50;;
15159;SDS011;7680;48.800;9.680;2024-03-23T12:59:09;4.80;;;3.70;;
15159;SDS011;7680;48.800;9.680;2024-03-23T13:04:13;6.93;;;4.03;;
15159;SDS011;7680;48.800;9.680;2024-03-23T13:09:15;4.83;;;3.80;;
15159;SDS011;7680;48.800;9.680;2024-03-23T13:14:17;5.23;;;3.77;;
15159;SDS011;7680;48.800;9.680;2024-03-23T13:19:20;4.07;;;3.60;;
15159;SDS011;7680;48.800;9.680;2024-03-23T13:24:27;5.23;;;3.83;;
15159;SDS011;7680;48.800;9.680;2024-03-23T13:29:29;3.93;;;2.90;;
15159;SDS011;7680;48.800;9.680;2024-03-23T13:34:33;4.60;;;3.57;;
15159;SDS011;7680;48.800;9.680;2024-03-23T13:39:35;4.83;;;3.47;;
15159;SDS011;7680;48.800;9.680;2024-03-23T13:44:37;5.53;;;3.70;;
15159;SDS011;7680;48.800;9.680;2024-03-23T13:49:41;6.07;;;3.80;;
15159;SDS011;7680;48.800;9.680;2024-03-23T13:54:43;5.17;;;3.30;;
15159;SDS011;7680;48.800;9.680;2024-03-23T13:59:46;7.37;;;3.83;;
15159;SDS011;7680;48.800;9.680;2024-03-23T14:04:50;6.33;;;3.97;;
15159;SDS011;7680;48.800;9.680;2024-03-23T14:09:52;6.63;;;3.60;;
15159;SDS011;7680;48.800;9.680;2024-03-23T14:14:55;5.03;;;3.77;;
15159;SDS011;7680;48.800;9.680;2024-03-23T14:19:59;6.87;;;3.73;;
15159;SDS011;7680;48.800;9.680;2024-03-23T14:25:02;4.77;;;3.43;;
15159;SDS011;7680;48.800;9.680;2024-03-23T14:30:06;3.17;;;2.87;;
15159;SDS011;7680;48.800;9.680;2024-03-23T14:35:11;4.27;;;2.50;;
15159;SDS011;7680;48.800;9.680;2024-03-23T14:40:13;4.00;;;2.30;;
15159;SDS011;7680;48.800;9.680;2024-03-23T14:45:16;5.13;;;2.70;;
15159;SDS011;7680;48.800;9.680;2024-03-23T14:50:19;6.30;;;3.30;;
15159;SDS011;7680;48.800;9.680;2024-03-23T14:55:21;4.57;;;2.70;;
15159;SDS011;7680;48.800;9.680;2024-03-23T15:00:24;3.17;;;2.50;;
15159;SDS011;7680;48.800;9.680;2024-03-23T15:05:27;4.23;;;2.60;;
15159;SDS011;7680;48.800;9.680;2024-03-23T15:10:29;2.70;;;2.57;;
15159;SDS011;7680;48.800;9.680;2024-03-23T15:15:37;2.73;;;2.30;;
15159;SDS011;7680;48.800;9.680;2024-03-23T15:20:42;2.60;;;2.23;;
15159;SDS011;7680;48.800;9.680;2024-03-23T15:25:54;3.80;;;2.40;;
15159;SDS011;7680;48.800;9.680;2024-03-23T15:30:58;5.07;;;3.17;;
15159;SDS011;7680;48.800;9.680;2024-03-23T15:36:02;3.93;;;3.53;;
15159;SDS011;7680;48.800;9.680;2024-03-23T15:41:04;4.53;;;2.80;;
15159;SDS011;7680;48.800;9.680;2024-03-23T15:46:07;3.27;;;2.80;;
15159;SDS011;7680;48.800;9.680;2024-03-23T15:51:12;4.53;;;2.60;;
15159;SDS011;7680;48.800;9.680;2024-03-23T15:56:15;3.77;;;2.63;;
15159;SDS011;7680;48.800;9.680;2024-03-23T16:01:17;3.20;;;2.73;;
15159;SDS011;7680;48.800;9.680;2024-03-23T16:06:20;3.77;;;2.53;;
15159;SDS011;7680;48.800;9.680;2024-03-23T16:11:23;2.47;;;2.00;;
15159;SDS011;7680;48.800;9.680;2024-03-23T16:16:25;2.83;;;2.37;;
15159;SDS011;7680;48.800;9.680;2024-03-23T16:21:28;2.90;;;2.43;;
15159;SDS011;7680;48.800;9.680;2024-03-23T16:26:31;2.30;;;2.10;;
15159;SDS011;7680;48.800;9.680;2024-03-23T16:31:33;4.77;;;2.40;;
15159;SDS011;7680;48.800;9.680;2024-03-23T16:36:36;3.13;;;2.63;;
15159;SDS011;7680;48.800;9.680;2024-03-23T16:41:39;3.30;;;2.77;;
15159;SDS011;7680;48.800;9.680;2024-03-23T16:46:41;2.93;;;2.77;;
15159;SDS011;7680;48.800;9.680;2024-03-23T16:51:45;4.17;;;2.80;;
15159;SDS011;7680;48.800;9.680;2024-03-23T16:56:49;1.90;;;1.80;;
15159;SDS011;7680;48.800;9.680;2024-03-23T17:01:51;1.93;;;1.83;;
15159;SDS011;7680;48.800;9.680;2024-03-23T17:06:55;3.07;;;1.90;;
15159;SDS011;7680;48.800;9.680;2024-03-23T17:11:57;3.53;;;2.20;;
15159;SDS011;7680;48.800;9.680;2024-03-23T17:16:59;2.00;;;1.80;;
15159;SDS011;7680;48.800;9.680;2024-03-23T17:22:03;3.67;;;2.50;;
15159;SDS011;7680;48.800;9.680;2024-03-23T17:27:06;2.27;;;2.17;;
15159;SDS011;7680;48.800;9.680;2024-03-23T17:32:09;3.97;;;2.77;;
15159;SDS011;7680;48.800;9.680;2024-03-23T17:37:13;3.33;;;2.70;;
15159;SDS011;7680;48.800;9.680;2024-03-23T17:42:15;3.30;;;3.10;;
15159;SDS011;7680;48.800;9.680;2024-03-23T17:47:17;3.80;;;3.30;;
15159;SDS011;7680;48.800;9.680;2024-03-23T17:52:20;4.00;;;3.70;;
15159;SDS011;7680;48.800;9.680;2024-03-23T17:57:23;2.97;;;2.70;;
15159;SDS011;7680;48.800;9.680;2024-03-23T18:02:25;4.10;;;3.70;;
15159;SDS011;7680;48.800;9.680;2024-03-23T18:07:29;5.60;;;4.63;;
15159;SDS011;7680;48.800;9.680;2024-03-23T18:12:31;9.67;;;8.67;;
15159;SDS011;7680;48.800;9.680;2024-03-23T18:17:33;7.57;;;6.73;;
15159;SDS011;7680;48.800;9.680;2024-03-23T18:22:37;3.87;;;3.20;;
15159;SDS011;7680;48.800;9.680;2024-03-23T18:27:39;3.37;;;3.07;;
15159;SDS011;7680;48.800;9.680;2024-03-23T18:32:41;4.23;;;3.83;;
15159;SDS011;7680;48.800;9.680;2024-03-23T18:37:44;26.93;;;20.03;;
15159;SDS011;7680;48.800;9.680;2024-03-23T18:42:47;50.27;;;28.97;;
15159;SDS011;7680;48.800;9.680;2024-03-23T18:47:49;16.27;;;10.50;;
15159;SDS011;7680;48.800;9.680;2024-03-23T18:52:52;2.90;;;2.70;;
15159;SDS011;7680;48.800;9.680;2024-03-23T18:57:54;6.40;;;5.90;;
15159;SDS011;7680;48.800;9.680;2024-03-23T19:02:58;3.30;;;2.77;;
15159;SDS011;7680;48.800;9.680;2024-03-23T19:08:02;2.97;;;2.87;;
15159;SDS011;7680;48.800;9.680;2024-03-23T19:13:05;3.60;;;3.30;;
15159;SDS011;7680;48.800;9.680;2024-03-23T19:18:08;4.07;;;3.30;;
15159;SDS011;7680;48.800;9.680;2024-03-23T19:23:11;3.50;;;3.10;;
15159;SDS011;7680;48.800;9.680;2024-03-23T19:28:13;3.20;;;3.00;;
15159;SDS011;7680;48.800;9.680;2024-03-23T19:33:15;2.90;;;2.70;;
15159;SDS011;7680;48.800;9.680;2024-03-23T19:38:19;5.00;;;4.60;;
15159;SDS011;7680;48.800;9.680;2024-03-23T19:43:21;4.60;;;4.20;;
15159;SDS011;7680;48.800;9.680;2024-03-23T19:48:23;5.07;;;4.67;;
15159;SDS011;7680;48.800;9.680;2024-03-23T19:53:27;4.97;;;4.57;;
15159;SDS011;7680;48.800;9.680;2024-03-23T19:58:29;11.80;;;10.70;;
15159;SDS011;7680;48.800;9.680;2024-03-23T20:03:31;6.17;;;5.57;;
15159;SDS011;7680;48.800;9.680;2024-03-23T20:08:34;7.77;;;7.17;;
15159;SDS011;7680;48.800;9.680;2024-03-23T20:13:37;7.10;;;6.40;;
15159;SDS011;7680;48.800;9.680;2024-03-23T20:18:39;7.90;;;7.03;;
15159;SDS011;7680;48.800;9.680;2024-03-23T20:23:42;6.20;;;5.70;;
15159;SDS011;7680;48.800;9.680;2024-03-23T20:28:44;8.53;;;7.73;;
15159;SDS011;7680;48.800;9.680;2024-03-23T20:33:46;19.00;;;13.23;;
15159;SDS011;7680;48.800;9.680;2024-03-23T20:38:50;8.63;;;7.57;;
15159;SDS011;7680;48.800;9.680;2024-03-23T20:43:52;8.33;;;5.93;;
15159;SDS011;7680;48.800;9.680;2024-03-23T20:48:54;7.07;;;6.37;;
15159;SDS011;7680;48.800;9.680;2024-03-23T20:53:58;5.10;;;4.63;;
15159;SDS011;7680;48.800;9.680;2024-03-23T20:59:00;5.00;;;4.50;;
15159;SDS011;7680;48.800;9.680;2024-03-23T21:04:02;9.23;;;8.33;;
15159;SDS011;7680;48.800;9.680;2024-03-23T21:09:06;8.47;;;7.80;;
15159;SDS011;7680;48.800;9.680;2024-03-23T21:14:08;7.47;;;6.70;;
15159;SDS011;7680;48.800;9.680;2024-03-23T21:19:10;6.33;;;5.83;;
15159;SDS011;7680;48.800;9.680;2024-03-23T21:24:13;4.63;;;4.23;;
15159;SDS011;7680;48.800;9.680;2024-03-23T21:29:16;5.93;;;5.30;;
15159;SDS011;7680;48.800;9.680;2024-03-23T21:34:18;5.83;;;5.43;;
15159;SDS011;7680;48.800;9.680;2024-03-23T21:39:21;5.70;;;5.20;;
15159;SDS011;7680;48.800;9.680;2024-03-23T21:44:24;5.57;;;5.07;;
15159;SDS011;7680;48.800;9.680;2024-03-23T21:49:26;7.80;;;5.77;;
15159;SDS011;7680;48.800;9.680;2024-03-23T21:54:29;5.40;;;4.90;;
15159;SDS011;7680;48.800;9.680;2024-03-23T21:59:31;5.63;;;5.07;;
15159;SDS011;7680;48.800;9.680;2024-03-23T22:04:34;7.33;;;6.40;;
15159;SDS011;7680;48.800;9.680;2024-03-23T22:09:37;6.73;;;6.03;;
15159;SDS011;7680;48.800;9.680;2024-03-23T22:14:39;7.13;;;6.30;;
15159;SDS011;7680;48.800;9.680;2024-03-23T22:19:43;7.30;;;5.83;;
15159;SDS011;7680;48.800;9.680;2024-03-23T22:24:46;6.13;;;5.63;;
15159;SDS011;7680;48.800;9.680;2024-03-23T22:29:48;5.80;;;5.30;;
15159;SDS011;7680;48.800;9.680;2024-03-23T22:34:50;4.80;;;4.40;;
15159;SDS011;7680;48.800;9.680;2024-03-23T22:39:54;5.20;;;4.80;;
15159;SDS011;7680;48.800;9.680;2024-03-23T22:44:57;7.07;;;5.80;;
15159;SDS011;7680;48.800;9.680;2024-03-23T22:50:00;4.83;;;4.17;;
15159;SDS011;7680;48.800;9.680;2024-03-23T22:55:04;5.27;;;3.87;;
15159;SDS011;7680;48.800;9.680;2024-03-23T23:00:07;4.87;;;4.53;;
15159;SDS011;7680;48.800;9.680;2024-03-23T23:05:10;29.60;;;16.40;;
15159;SDS011;7680;48.800;9.680;2024-03-23T23:10:13;16.03;;;10.60;;
15159;SDS011;7680;48.800;9.680;2024-03-23T23:15:16;7.87;;;6.93;;
15159;SDS011;7680;48.800;9.680;2024-03-23T23:20:18;4.83;;;4.33;;
15159;SDS011;7680;48.800;9.680;2024-03-23T23:25:22;4.97;;;4.10;;
15159;SDS011;7680;48.800;9.680;2024-03-23T23:30:24;4.83;;;4.43;;
15159;SDS011;7680;48.800;9.680;2024-03-23T23:35:26;3.27;;;3.03;;
15159;SDS011;7680;48.800;9.680;2024-03-23T23:40:29;2.50;;;2.30;;
15159;SDS011;7680;48.800;9.680;2024-03-23T23:45:33;2.90;;;2.70;;
15159;SDS011;7680;48.800;9.680;2024-03-23T23:50:35;2.20;;;2.10;;
15159;SDS011;7680;48.800;9.680;2024-03-23T23:55:39;2.27;;;2.10;;
